createdAt,value
2024-01-22T00:00:24.760Z,6.87
2024-01-22T00:01:24.735Z,6.87
2024-01-22T00:02:24.415Z,6.90
2024-01-22T00:03:24.606Z,6.95
2024-01-22T00:04:24.720Z,6.97
2024-01-22T00:05:24.335Z,6.97
2024-01-22T00:06:25.271Z,6.95
2024-01-22T00:07:24.683Z,6.98
2024-01-22T00:08:24.536Z,6.98
2024-01-22T00:09:24.580Z,6.99
2024-01-22T00:10:24.451Z,6.98
2024-01-22T00:11:24.804Z,6.98
2024-01-22T00:12:24.556Z,7.02
2024-01-22T00:13:24.528Z,7.04
2024-01-22T00:14:24.648Z,7.05
2024-01-22T00:15:24.250Z,7.08
2024-01-22T00:16:24.256Z,7.08
2024-01-22T00:17:24.311Z,7.09
2024-01-22T00:18:24.370Z,7.12
2024-01-22T00:19:24.312Z,7.15
2024-01-22T00:20:24.465Z,7.16
2024-01-22T00:21:24.202Z,7.17
2024-01-22T00:22:24.102Z,7.17
2024-01-22T00:23:24.130Z,7.13
2024-01-22T00:24:24.345Z,7.13
2024-01-22T00:25:24.248Z,7.15
2024-01-22T00:26:24.324Z,7.15
2024-01-22T00:27:24.177Z,7.15
2024-01-22T00:28:24.090Z,7.15
2024-01-22T00:29:24.037Z,7.16
2024-01-22T00:30:24.081Z,7.17
2024-01-22T00:31:24.024Z,7.16
2024-01-22T00:32:24.172Z,7.17
2024-01-22T00:33:24.125Z,7.17
2024-01-22T00:34:24.029Z,7.22
2024-01-22T00:35:24.011Z,7.24
2024-01-22T00:36:23.983Z,7.24
2024-01-22T00:37:23.979Z,7.23
2024-01-22T00:38:23.995Z,7.20
2024-01-22T00:39:24.185Z,7.16
2024-01-22T00:40:23.972Z,7.15
2024-01-22T00:41:24.297Z,7.15
2024-01-22T00:42:24.071Z,7.15
2024-01-22T00:43:23.995Z,7.19
2024-01-22T00:44:23.960Z,7.17
2024-01-22T00:45:23.916Z,7.20
2024-01-22T00:46:23.987Z,7.20
2024-01-22T00:47:24.046Z,7.20
2024-01-22T00:48:24.147Z,7.20
2024-01-22T00:49:24.203Z,7.24
2024-01-22T00:50:23.904Z,7.24
2024-01-22T00:51:24.235Z,7.29
2024-01-22T00:52:23.891Z,7.29
2024-01-22T00:53:23.944Z,7.27
2024-01-22T00:54:23.821Z,7.29
2024-01-22T00:55:24.028Z,7.29
2024-01-22T00:56:23.831Z,7.29
2024-01-22T00:57:23.809Z,7.26
2024-01-22T00:58:23.909Z,7.24
2024-01-22T00:59:23.950Z,7.23
2024-01-22T01:00:23.924Z,7.23
2024-01-22T01:01:23.770Z,7.26
2024-01-22T01:02:24.179Z,7.26
2024-01-22T01:03:24.041Z,7.26
2024-01-22T01:04:23.856Z,7.27
2024-01-22T01:05:23.958Z,7.29
2024-01-22T01:06:23.787Z,7.29
2024-01-22T01:07:23.726Z,7.29
2024-01-22T01:08:23.735Z,7.31
2024-01-22T01:09:23.714Z,7.32
2024-01-22T01:10:23.686Z,7.32
2024-01-22T01:11:23.636Z,7.34
2024-01-22T01:12:23.676Z,7.37
2024-01-22T01:13:23.693Z,7.45
2024-01-22T01:14:23.685Z,7.45
2024-01-22T01:15:23.624Z,7.50
2024-01-22T01:16:23.614Z,7.53
2024-01-22T01:17:23.632Z,7.55
2024-01-22T01:18:23.646Z,7.56
2024-01-22T01:19:23.668Z,7.56
2024-01-22T01:20:23.609Z,7.53
2024-01-22T01:21:23.573Z,7.50
2024-01-22T01:22:23.729Z,7.53
2024-01-22T01:23:23.626Z,7.53
2024-01-22T01:24:23.711Z,7.56
2024-01-22T01:25:23.539Z,7.58
2024-01-22T01:26:23.556Z,7.59
2024-01-22T01:27:23.675Z,7.60
2024-01-22T01:28:23.649Z,7.62
2024-01-22T01:29:23.570Z,7.62
2024-01-22T01:30:23.694Z,7.66
2024-01-22T01:31:23.561Z,7.63
2024-01-22T01:32:23.570Z,7.62
2024-01-22T01:33:23.723Z,7.66
2024-01-22T01:34:23.732Z,7.67
2024-01-22T01:35:23.474Z,7.69
2024-01-22T01:36:23.585Z,7.72
2024-01-22T01:37:23.460Z,7.75
2024-01-22T01:38:23.514Z,7.77
2024-01-22T01:39:23.635Z,7.81
2024-01-22T01:40:23.416Z,7.84
2024-01-22T01:41:23.353Z,7.87
2024-01-22T01:42:23.334Z,7.92
2024-01-22T01:43:23.505Z,7.93
2024-01-22T01:44:23.362Z,7.92
2024-01-22T01:45:23.447Z,7.90
2024-01-22T01:46:23.391Z,7.89
2024-01-22T01:47:23.562Z,7.90
2024-01-22T01:48:23.474Z,7.96
2024-01-22T01:49:23.347Z,8.02
2024-01-22T01:50:23.306Z,8.07
2024-01-22T01:51:23.271Z,8.12
2024-01-22T01:52:23.456Z,8.15
2024-01-22T01:53:23.377Z,8.18
2024-01-22T01:54:23.409Z,8.17
2024-01-22T01:55:23.533Z,8.18
2024-01-22T01:56:23.238Z,8.17
2024-01-22T01:57:23.367Z,8.18
2024-01-22T01:58:23.226Z,8.15
2024-01-22T01:59:23.398Z,8.17
2024-01-22T02:00:23.548Z,8.20
2024-01-22T02:01:23.446Z,8.22
2024-01-22T02:02:23.201Z,8.25
2024-01-22T02:03:23.258Z,8.29
2024-01-22T02:04:23.179Z,8.37
2024-01-22T02:05:23.195Z,8.39
2024-01-22T02:06:23.804Z,8.37
2024-01-22T02:07:23.238Z,8.37
2024-01-22T02:08:23.333Z,8.39
2024-01-22T02:09:23.098Z,8.44
2024-01-22T02:10:23.051Z,8.40
2024-01-22T02:11:23.079Z,8.39
2024-01-22T02:12:23.310Z,8.37
2024-01-22T02:13:23.126Z,8.36
2024-01-22T02:14:23.325Z,8.35
2024-01-22T02:15:23.016Z,8.36
2024-01-22T02:16:23.201Z,8.37
2024-01-22T02:17:23.003Z,8.36
2024-01-22T02:18:23.228Z,8.32
2024-01-22T02:19:23.140Z,8.32
2024-01-22T02:20:23.113Z,8.36
2024-01-22T02:21:23.145Z,8.40
2024-01-22T02:22:23.144Z,8.39
2024-01-22T02:23:22.978Z,8.40
2024-01-22T02:24:22.992Z,8.40
2024-01-22T02:25:22.937Z,8.47
2024-01-22T02:26:22.956Z,8.45
2024-01-22T02:27:22.999Z,8.47
2024-01-22T02:28:22.873Z,8.48
2024-01-22T02:29:22.892Z,8.48
2024-01-22T02:30:22.949Z,8.51
2024-01-22T02:31:22.877Z,8.51
2024-01-22T02:32:22.886Z,8.50
2024-01-22T02:33:23.152Z,8.48
2024-01-22T02:34:23.105Z,8.47
2024-01-22T02:35:23.186Z,8.45
2024-01-22T02:36:22.941Z,8.45
2024-01-22T02:37:22.857Z,8.48
2024-01-22T02:38:22.826Z,8.50
2024-01-22T02:39:22.839Z,8.54
2024-01-22T02:40:22.888Z,8.54
2024-01-22T02:41:23.124Z,8.53
2024-01-22T02:42:22.963Z,8.53
2024-01-22T02:43:22.899Z,8.54
2024-01-22T02:44:22.812Z,8.57
2024-01-22T02:45:22.780Z,8.62
2024-01-22T02:46:22.861Z,8.66
2024-01-22T02:47:22.756Z,8.68
2024-01-22T02:48:23.115Z,8.68
2024-01-22T02:49:23.072Z,8.66
2024-01-22T02:50:22.817Z,8.66
2024-01-22T02:51:22.723Z,8.65
2024-01-22T02:52:22.858Z,8.68
2024-01-22T02:53:22.657Z,8.69
2024-01-22T02:54:22.856Z,8.68
2024-01-22T02:55:22.660Z,8.65
2024-01-22T02:56:22.641Z,8.63
2024-01-22T02:57:22.843Z,8.63
2024-01-22T02:58:22.628Z,8.63
2024-01-22T02:59:22.637Z,8.69
2024-01-22T03:00:22.686Z,8.75
2024-01-22T03:01:22.614Z,8.78
2024-01-22T03:02:22.878Z,8.83
2024-01-22T03:03:22.970Z,8.81
2024-01-22T03:04:22.619Z,8.84
2024-01-22T03:05:22.781Z,8.87
2024-01-22T03:06:22.684Z,8.87
2024-01-22T03:07:22.663Z,8.87
2024-01-22T03:08:22.784Z,8.87
2024-01-22T03:09:22.895Z,8.88
2024-01-22T03:10:22.483Z,8.88
2024-01-22T03:11:22.512Z,8.91
2024-01-22T03:12:22.538Z,8.94
2024-01-22T03:13:22.628Z,8.94
2024-01-22T03:14:22.733Z,8.94
2024-01-22T03:15:22.633Z,9.01
2024-01-22T03:16:22.613Z,9.02
2024-01-22T03:17:22.519Z,9.01
2024-01-22T03:18:22.868Z,9.02
2024-01-22T03:19:22.567Z,9.09
2024-01-22T03:20:22.416Z,9.12
2024-01-22T03:21:22.701Z,9.16
2024-01-22T03:22:22.467Z,9.21
2024-01-22T03:23:22.383Z,9.20
2024-01-22T03:24:22.804Z,9.24
2024-01-22T03:25:22.327Z,9.25
2024-01-22T03:26:22.553Z,9.25
2024-01-22T03:27:22.430Z,9.30
2024-01-22T03:28:22.356Z,9.32
2024-01-22T03:29:22.270Z,9.31
2024-01-22T03:30:22.553Z,9.32
2024-01-22T03:31:22.264Z,9.34
2024-01-22T03:32:22.559Z,9.31
2024-01-22T03:33:22.486Z,9.28
2024-01-22T03:34:22.479Z,9.25
2024-01-22T03:35:22.529Z,9.23
2024-01-22T03:36:22.259Z,9.25
2024-01-22T03:37:22.294Z,9.23
2024-01-22T03:38:22.411Z,9.12
2024-01-22T03:39:22.474Z,8.99
2024-01-22T03:40:22.238Z,8.86
2024-01-22T03:41:22.478Z,8.69
2024-01-22T03:42:22.399Z,8.58
2024-01-22T03:43:22.331Z,8.48
2024-01-22T03:44:22.247Z,8.36
2024-01-22T03:45:22.472Z,8.29
2024-01-22T03:46:22.338Z,8.28
2024-01-22T03:47:22.328Z,8.26
2024-01-22T03:48:22.324Z,8.26
2024-01-22T03:49:22.453Z,8.22
2024-01-22T03:50:22.360Z,8.20
2024-01-22T03:51:22.327Z,8.15
2024-01-22T03:52:22.100Z,8.11
2024-01-22T03:53:22.109Z,8.10
2024-01-22T03:54:22.184Z,8.11
2024-01-22T03:55:22.140Z,8.12
2024-01-22T03:56:22.391Z,8.10
2024-01-22T03:57:22.085Z,8.10
2024-01-22T03:58:22.094Z,8.08
2024-01-22T03:59:22.033Z,8.11
2024-01-22T04:00:22.108Z,8.12
2024-01-22T04:01:22.058Z,8.11
2024-01-22T04:02:22.067Z,8.12
2024-01-22T04:03:22.065Z,8.11
2024-01-22T04:04:22.106Z,8.14
2024-01-22T04:05:21.936Z,8.14
2024-01-22T04:06:22.403Z,8.12
2024-01-22T04:07:22.180Z,8.12
2024-01-22T04:08:22.154Z,8.18
2024-01-22T04:09:22.003Z,8.20
2024-01-22T04:10:21.893Z,8.18
2024-01-22T04:11:21.958Z,8.21
2024-01-22T04:12:21.953Z,8.20
2024-01-22T04:13:27.100Z,8.20
2024-01-22T04:14:21.883Z,8.20
2024-01-22T04:15:21.897Z,8.21
2024-01-22T04:16:21.833Z,8.25
2024-01-22T04:17:21.886Z,8.22
2024-01-22T04:18:22.062Z,8.20
2024-01-22T04:19:21.930Z,8.18
2024-01-22T04:20:22.077Z,8.17
2024-01-22T04:21:21.937Z,8.17
2024-01-22T04:22:21.851Z,8.17
2024-01-22T04:23:21.982Z,8.15
2024-01-22T04:24:21.748Z,8.15
2024-01-22T04:25:21.766Z,8.14
2024-01-22T04:26:22.074Z,8.14
2024-01-22T04:27:21.859Z,8.12
2024-01-22T04:28:21.915Z,8.12
2024-01-22T04:29:21.824Z,8.12
2024-01-22T04:30:21.972Z,8.11
2024-01-22T04:31:21.799Z,8.12
2024-01-22T04:32:21.939Z,8.12
2024-01-22T04:33:21.846Z,8.11
2024-01-22T04:34:21.909Z,8.12
2024-01-22T04:35:21.662Z,8.14
2024-01-22T04:36:21.715Z,8.14
2024-01-22T04:37:21.721Z,8.18
2024-01-22T04:38:21.669Z,8.18
2024-01-22T04:39:21.669Z,8.21
2024-01-22T04:40:21.739Z,8.20
2024-01-22T04:41:21.596Z,8.20
2024-01-22T04:42:21.973Z,8.20
2024-01-22T04:43:21.579Z,8.21
2024-01-22T04:44:21.613Z,8.22
2024-01-22T04:45:21.696Z,8.26
2024-01-22T04:46:21.530Z,8.25
2024-01-22T04:47:21.538Z,8.25
2024-01-22T04:48:21.736Z,8.25
2024-01-22T04:49:21.613Z,8.25
2024-01-22T04:50:21.562Z,8.26
2024-01-22T04:51:21.546Z,8.25
2024-01-22T04:52:21.533Z,8.30
2024-01-22T04:53:21.488Z,8.32
2024-01-22T04:54:21.553Z,8.36
2024-01-22T04:55:23.101Z,8.40
2024-01-22T04:56:21.497Z,8.44
2024-01-22T04:57:21.460Z,8.40
2024-01-22T04:58:21.409Z,8.40
2024-01-22T04:59:21.383Z,8.37
2024-01-22T05:00:21.721Z,8.37
2024-01-22T05:01:21.453Z,8.36
2024-01-22T05:02:21.426Z,8.35
2024-01-22T05:03:21.428Z,8.39
2024-01-22T05:04:21.409Z,8.40
2024-01-22T05:05:21.504Z,8.40
2024-01-22T05:06:21.482Z,8.44
2024-01-22T05:07:21.526Z,8.45
2024-01-22T05:08:21.532Z,8.47
2024-01-22T05:09:21.514Z,8.50
2024-01-22T05:10:21.908Z,8.54
2024-01-22T05:11:21.328Z,8.58
2024-01-22T05:12:21.408Z,8.58
2024-01-22T05:13:21.808Z,8.62
2024-01-22T05:14:21.486Z,8.63
2024-01-22T05:15:21.286Z,8.63
2024-01-22T05:16:21.504Z,8.66
2024-01-22T05:17:21.516Z,8.68
2024-01-22T05:18:24.234Z,8.65
2024-01-22T05:19:21.297Z,8.68
2024-01-22T05:20:21.245Z,8.65
2024-01-22T05:21:21.267Z,8.63
2024-01-22T05:22:21.342Z,8.65
2024-01-22T05:23:21.311Z,8.63
2024-01-22T05:24:21.202Z,8.66
2024-01-22T05:25:22.226Z,8.65
2024-01-22T05:26:21.562Z,8.66
2024-01-22T05:27:21.427Z,8.66
2024-01-22T05:28:21.335Z,8.66
2024-01-22T05:29:21.174Z,8.63
2024-01-22T05:30:21.358Z,8.65
2024-01-22T05:31:21.194Z,8.62
2024-01-22T05:32:21.400Z,8.57
2024-01-22T05:33:21.530Z,8.55
2024-01-22T05:34:21.289Z,8.55
2024-01-22T05:35:21.368Z,8.54
2024-01-22T05:36:21.192Z,8.55
2024-01-22T05:37:21.281Z,8.57
2024-01-22T05:38:21.260Z,8.55
2024-01-22T05:39:21.080Z,8.55
2024-01-22T05:40:21.056Z,8.57
2024-01-22T05:41:21.073Z,8.57
2024-01-22T05:42:21.026Z,8.55
2024-01-22T05:43:21.198Z,8.57
2024-01-22T05:44:21.001Z,8.57
2024-01-22T05:45:21.204Z,8.60
2024-01-22T05:46:20.990Z,8.62
2024-01-22T05:47:20.966Z,8.63
2024-01-22T05:48:21.152Z,8.62
2024-01-22T05:49:21.223Z,8.60
2024-01-22T05:50:21.337Z,8.60
2024-01-22T05:51:20.945Z,8.63
2024-01-22T05:52:20.899Z,8.62
2024-01-22T05:53:20.908Z,8.60
2024-01-22T05:54:21.094Z,8.58
2024-01-22T05:55:20.926Z,8.62
2024-01-22T05:56:20.934Z,8.62
2024-01-22T05:57:20.936Z,8.63
2024-01-22T05:58:20.926Z,8.65
2024-01-22T05:59:20.923Z,8.66
2024-01-22T06:00:20.963Z,8.69
2024-01-22T06:01:20.881Z,8.71
2024-01-22T06:02:21.173Z,8.72
2024-01-22T06:03:21.371Z,8.72
2024-01-22T06:04:20.867Z,8.72
2024-01-22T06:05:20.790Z,8.76
2024-01-22T06:06:21.455Z,8.73
2024-01-22T06:07:20.824Z,8.76
2024-01-22T06:08:20.859Z,8.75
2024-01-22T06:09:20.809Z,8.78
2024-01-22T06:10:20.863Z,8.81
2024-01-22T06:11:20.753Z,8.87
2024-01-22T06:12:20.977Z,8.88
2024-01-22T06:13:20.710Z,8.90
2024-01-22T06:14:20.859Z,8.91
2024-01-22T06:15:20.831Z,8.93
2024-01-22T06:16:20.673Z,8.93
2024-01-22T06:17:20.817Z,8.91
2024-01-22T06:18:20.810Z,8.94
2024-01-22T06:19:20.872Z,8.97
2024-01-22T06:20:20.727Z,8.97
2024-01-22T06:21:20.751Z,8.97
2024-01-22T06:22:20.662Z,8.99
2024-01-22T06:23:20.720Z,9.04
2024-01-22T06:24:20.650Z,9.06
2024-01-22T06:25:20.563Z,9.05
2024-01-22T06:26:20.632Z,9.09
2024-01-22T06:27:20.633Z,9.06
2024-01-22T06:28:20.632Z,9.06
2024-01-22T06:29:20.561Z,9.10
2024-01-22T06:30:20.588Z,9.10
2024-01-22T06:31:20.762Z,9.09
2024-01-22T06:32:20.648Z,9.09
2024-01-22T06:33:20.636Z,9.09
2024-01-22T06:34:20.855Z,9.09
2024-01-22T06:35:20.441Z,9.12
2024-01-22T06:36:20.614Z,9.12
2024-01-22T06:37:20.442Z,9.12
2024-01-22T06:38:20.455Z,9.10
2024-01-22T06:39:20.471Z,9.10
2024-01-22T06:40:20.474Z,9.12
2024-01-22T06:41:20.457Z,9.16
2024-01-22T06:42:27.657Z,9.23
2024-01-22T06:43:20.400Z,9.31
2024-01-22T06:44:20.405Z,9.31
2024-01-22T06:45:20.475Z,9.32
2024-01-22T06:46:20.699Z,9.32
2024-01-22T06:47:20.353Z,9.35
2024-01-22T06:48:20.642Z,9.38
2024-01-22T06:49:20.476Z,9.40
2024-01-22T06:50:20.621Z,9.42
2024-01-22T06:51:27.116Z,9.43
2024-01-22T06:52:20.318Z,9.45
2024-01-22T06:53:20.319Z,9.52
2024-01-22T06:54:22.865Z,9.58
2024-01-22T06:55:20.290Z,9.63
2024-01-22T06:56:20.486Z,9.67
2024-01-22T06:57:20.338Z,9.71
2024-01-22T06:58:20.375Z,9.79
2024-01-22T06:59:20.283Z,9.83
2024-01-22T07:00:20.460Z,9.85
2024-01-22T07:01:20.306Z,9.85
2024-01-22T07:02:20.378Z,9.86
2024-01-22T07:03:20.404Z,9.88
2024-01-22T07:04:20.222Z,9.94
2024-01-22T07:05:20.451Z,9.94
2024-01-22T07:06:23.721Z,10.00
2024-01-22T07:07:20.237Z,10.03
2024-01-22T07:08:20.173Z,10.01
2024-01-22T07:09:20.202Z,10.00
2024-01-22T07:10:20.103Z,9.99
2024-01-22T07:11:20.104Z,10.00
2024-01-22T07:12:20.411Z,10.00
2024-01-22T07:13:20.109Z,10.03
2024-01-22T07:14:20.187Z,10.03
2024-01-22T07:15:20.240Z,10.04
2024-01-22T07:16:20.193Z,10.03
2024-01-22T07:17:20.097Z,10.03
2024-01-22T07:18:20.180Z,10.06
2024-01-22T07:19:20.350Z,10.07
2024-01-22T07:20:20.100Z,10.09
2024-01-22T07:21:20.109Z,10.06
2024-01-22T07:22:20.083Z,10.04
2024-01-22T07:23:20.339Z,10.03
2024-01-22T07:24:20.247Z,10.06
2024-01-22T07:25:20.193Z,10.09
2024-01-22T07:26:20.224Z,10.09
2024-01-22T07:27:20.056Z,10.09
2024-01-22T07:28:19.927Z,10.10
2024-01-22T07:29:20.244Z,10.10
2024-01-22T07:30:20.242Z,10.14
2024-01-22T07:31:20.117Z,10.21
2024-01-22T07:32:20.150Z,10.34
2024-01-22T07:33:20.035Z,10.37
2024-01-22T07:34:19.980Z,10.39
2024-01-22T07:35:19.877Z,10.43
2024-01-22T07:36:20.007Z,10.53
2024-01-22T07:37:19.969Z,10.56
2024-01-22T07:38:19.875Z,10.56
2024-01-22T07:39:19.871Z,10.63
2024-01-22T07:40:19.909Z,10.65
2024-01-22T07:41:19.864Z,10.70
2024-01-22T07:42:20.301Z,10.77
2024-01-22T07:43:20.139Z,10.83
2024-01-22T07:44:19.980Z,10.81
2024-01-22T07:45:19.911Z,10.88
2024-01-22T07:46:19.799Z,10.91
2024-01-22T07:47:22.441Z,10.92
2024-01-22T07:48:19.849Z,10.94
2024-01-22T07:49:19.825Z,10.95
2024-01-22T07:50:19.799Z,10.96
2024-01-22T07:51:19.777Z,10.95
2024-01-22T07:52:19.827Z,10.94
2024-01-22T07:53:19.857Z,10.95
2024-01-22T07:54:19.852Z,10.95
2024-01-22T07:55:20.041Z,10.95
2024-01-22T07:56:19.869Z,11.06
2024-01-22T07:57:19.899Z,11.07
2024-01-22T07:58:20.049Z,11.09
2024-01-22T07:59:19.866Z,11.09
2024-01-22T08:00:20.145Z,11.09
2024-01-22T08:01:19.653Z,11.10
2024-01-22T08:02:19.834Z,11.07
2024-01-22T08:03:19.616Z,11.07
2024-01-22T08:04:19.647Z,11.07
2024-01-22T08:05:19.644Z,11.09
2024-01-22T08:06:19.657Z,11.09
2024-01-22T08:07:20.906Z,11.03
2024-01-22T08:08:19.749Z,10.99
2024-01-22T08:09:19.693Z,10.96
2024-01-22T08:10:19.728Z,11.01
2024-01-22T08:11:19.765Z,11.07
2024-01-22T08:12:19.686Z,11.13
2024-01-22T08:13:19.741Z,11.16
2024-01-22T08:14:19.688Z,11.16
2024-01-22T08:15:19.632Z,11.16
2024-01-22T08:16:19.810Z,11.11
2024-01-22T08:17:19.822Z,11.06
2024-01-22T08:18:19.822Z,10.95
2024-01-22T08:19:19.778Z,10.88
2024-01-22T08:20:19.951Z,10.80
2024-01-22T08:21:19.639Z,10.78
2024-01-22T08:22:19.505Z,10.76
2024-01-22T08:23:19.655Z,10.77
2024-01-22T08:24:19.887Z,10.73
2024-01-22T08:25:19.598Z,10.73
2024-01-22T08:26:19.630Z,10.74
2024-01-22T08:27:19.550Z,10.76
2024-01-22T08:28:19.547Z,10.74
2024-01-22T08:29:19.345Z,10.71
2024-01-22T08:30:19.658Z,10.71
2024-01-22T08:31:19.568Z,10.71
2024-01-22T08:32:19.315Z,10.76
2024-01-22T08:33:19.666Z,10.77
2024-01-22T08:34:19.802Z,10.78
2024-01-22T08:35:19.775Z,10.77
2024-01-22T08:36:19.475Z,10.77
2024-01-22T08:37:19.584Z,10.78
2024-01-22T08:38:19.338Z,10.78
2024-01-22T08:39:19.540Z,10.77
2024-01-22T08:40:19.409Z,10.78
2024-01-22T08:41:19.274Z,10.77
2024-01-22T08:42:19.402Z,10.78
2024-01-22T08:43:19.260Z,10.78
2024-01-22T08:44:19.260Z,10.78
2024-01-22T08:45:19.383Z,10.76
2024-01-22T08:46:19.351Z,10.74
2024-01-22T08:47:19.234Z,10.76
2024-01-22T08:48:19.478Z,10.76
2024-01-22T08:49:19.201Z,10.74
2024-01-22T08:50:19.373Z,10.73
2024-01-22T08:51:19.364Z,10.73
2024-01-22T08:52:19.186Z,10.73
2024-01-22T08:53:19.213Z,10.71
2024-01-22T08:54:19.478Z,10.76
2024-01-22T08:55:19.152Z,10.76
2024-01-22T08:56:19.215Z,10.73
2024-01-22T08:57:19.146Z,10.73
2024-01-22T08:58:19.227Z,10.66
2024-01-22T08:59:19.027Z,10.68
2024-01-22T09:00:19.440Z,10.68
2024-01-22T09:01:19.083Z,10.66
2024-01-22T09:02:20.257Z,10.66
2024-01-22T09:03:33.978Z,10.68
2024-01-22T09:04:19.073Z,10.70
2024-01-22T09:05:21.632Z,10.74
2024-01-22T09:06:19.074Z,10.77
2024-01-22T09:07:19.048Z,10.77
2024-01-22T09:08:19.062Z,10.76
2024-01-22T09:09:19.237Z,10.77
2024-01-22T09:10:18.946Z,10.74
2024-01-22T09:11:19.072Z,10.76
2024-01-22T09:12:19.086Z,10.76
2024-01-22T09:13:18.918Z,10.77
2024-01-22T09:14:18.962Z,10.76
2024-01-22T09:15:19.748Z,10.78
2024-01-22T09:16:19.070Z,10.78
2024-01-22T09:17:18.981Z,10.77
2024-01-22T09:18:19.011Z,10.78
2024-01-22T09:19:19.006Z,10.77
2024-01-22T09:20:19.073Z,10.77
2024-01-22T09:21:19.360Z,10.78
2024-01-22T09:22:19.057Z,10.83
2024-01-22T09:23:18.820Z,10.83
2024-01-22T09:24:19.000Z,10.81
2024-01-22T09:25:18.879Z,10.77
2024-01-22T09:26:18.996Z,10.76
2024-01-22T09:27:18.849Z,10.78
2024-01-22T09:28:18.799Z,10.81
2024-01-22T09:29:18.748Z,10.89
2024-01-22T09:30:19.740Z,10.94
2024-01-22T09:31:18.841Z,10.98
2024-01-22T09:32:18.878Z,11.01
2024-01-22T09:33:18.792Z,10.99
2024-01-22T09:34:19.203Z,10.99
2024-01-22T09:35:18.695Z,11.02
2024-01-22T09:36:19.105Z,11.02
2024-01-22T09:37:18.832Z,11.03
2024-01-22T09:38:18.774Z,11.03
2024-01-22T09:39:18.941Z,11.06
2024-01-22T09:40:22.648Z,11.06
2024-01-22T09:41:18.673Z,11.03
2024-01-22T09:42:19.182Z,11.06
2024-01-22T09:43:18.637Z,11.10
2024-01-22T09:44:18.739Z,11.16
2024-01-22T09:45:18.676Z,11.19
2024-01-22T09:46:18.709Z,11.24
2024-01-22T09:47:18.702Z,11.24
2024-01-22T09:48:18.820Z,11.27
2024-01-22T09:49:18.620Z,11.29
2024-01-22T09:50:18.723Z,11.32
2024-01-22T09:51:18.656Z,11.34
2024-01-22T09:52:18.651Z,11.38
2024-01-22T09:53:18.757Z,11.44
2024-01-22T09:54:20.562Z,11.46
2024-01-22T09:55:18.561Z,11.47
2024-01-22T09:56:18.542Z,11.47
2024-01-22T09:57:18.940Z,11.49
2024-01-22T09:58:18.669Z,11.50
2024-01-22T09:59:18.682Z,11.52
2024-01-22T10:00:18.640Z,11.53
2024-01-22T10:01:18.452Z,11.56
2024-01-22T10:02:18.681Z,11.57
2024-01-22T10:03:18.535Z,11.59
2024-01-22T10:04:18.448Z,11.57
2024-01-22T10:05:18.409Z,11.57
2024-01-22T10:06:18.442Z,11.61
2024-01-22T10:07:18.399Z,11.65
2024-01-22T10:08:18.676Z,11.68
2024-01-22T10:09:18.412Z,11.70
2024-01-22T10:10:20.326Z,11.72
2024-01-22T10:11:18.369Z,11.72
2024-01-22T10:12:18.615Z,11.72
2024-01-22T10:13:18.471Z,11.74
2024-01-22T10:14:18.344Z,11.77
2024-01-22T10:15:18.340Z,11.80
2024-01-22T10:16:20.618Z,11.78
2024-01-22T10:17:18.243Z,11.80
2024-01-22T10:18:18.672Z,11.77
2024-01-22T10:19:18.780Z,11.77
2024-01-22T10:20:18.690Z,11.74
2024-01-22T10:21:18.391Z,11.72
2024-01-22T10:22:18.434Z,11.72
2024-01-22T10:23:18.207Z,11.77
2024-01-22T10:24:18.276Z,11.74
2024-01-22T10:25:18.239Z,11.75
2024-01-22T10:26:18.229Z,11.74
2024-01-22T10:27:18.431Z,11.77
2024-01-22T10:28:19.016Z,11.80
2024-01-22T10:29:18.220Z,11.85
2024-01-22T10:30:18.410Z,11.86
2024-01-22T10:31:18.298Z,11.87
2024-01-22T10:32:18.416Z,11.89
2024-01-22T10:33:18.327Z,11.90
2024-01-22T10:34:18.286Z,11.90
2024-01-22T10:35:18.213Z,11.94
2024-01-22T10:36:18.378Z,11.97
2024-01-22T10:37:18.187Z,12.02
2024-01-22T10:38:18.293Z,12.02
2024-01-22T10:39:18.151Z,11.99
2024-01-22T10:40:18.311Z,11.97
2024-01-22T10:41:18.241Z,11.97
2024-01-22T10:42:18.167Z,11.93
2024-01-22T10:43:18.108Z,11.94
2024-01-22T10:44:18.182Z,11.94
2024-01-22T10:45:18.122Z,11.93
2024-01-22T10:46:18.202Z,11.96
2024-01-22T10:47:18.006Z,11.96
2024-01-22T10:48:24.268Z,11.97
2024-01-22T10:49:18.187Z,12.01
2024-01-22T10:50:18.269Z,11.97
2024-01-22T10:51:18.077Z,11.99
2024-01-22T10:52:18.138Z,11.99
2024-01-22T10:53:18.191Z,12.02
2024-01-22T10:54:18.130Z,12.05
2024-01-22T10:55:18.098Z,12.09
2024-01-22T10:56:18.163Z,12.09
2024-01-22T10:57:18.010Z,12.11
2024-01-22T10:58:17.913Z,12.09
2024-01-22T10:59:18.640Z,12.08
2024-01-22T11:00:17.903Z,12.12
2024-01-22T11:01:17.843Z,12.11
2024-01-22T11:02:17.862Z,12.11
2024-01-22T11:03:17.994Z,12.09
2024-01-22T11:04:18.967Z,12.11
2024-01-22T11:05:17.877Z,12.11
2024-01-22T11:06:17.840Z,12.09
2024-01-22T11:07:17.797Z,12.05
2024-01-22T11:08:17.966Z,12.02
2024-01-22T11:09:17.956Z,12.01
2024-01-22T11:10:17.866Z,11.97
2024-01-22T11:11:17.753Z,11.97
2024-01-22T11:12:17.791Z,11.97
2024-01-22T11:13:17.739Z,11.94
2024-01-22T11:14:17.936Z,11.93
2024-01-22T11:15:17.935Z,11.93
2024-01-22T11:16:17.716Z,11.90
2024-01-22T11:17:17.787Z,11.97
2024-01-22T11:18:17.898Z,11.99
2024-01-22T11:19:17.986Z,11.96
2024-01-22T11:20:17.891Z,11.96
2024-01-22T11:21:17.900Z,11.96
2024-01-22T11:22:17.694Z,11.93
2024-01-22T11:23:17.616Z,11.93
2024-01-22T11:24:18.154Z,11.96
2024-01-22T11:25:17.627Z,11.97
2024-01-22T11:26:17.849Z,11.97
2024-01-22T11:27:18.038Z,11.97
2024-01-22T11:28:17.775Z,11.97
2024-01-22T11:29:17.852Z,11.97
2024-01-22T11:30:17.795Z,11.99
2024-01-22T11:31:17.514Z,12.04
2024-01-22T11:32:17.556Z,12.02
2024-01-22T11:33:17.826Z,12.01
2024-01-22T11:34:17.554Z,11.96
2024-01-22T11:35:24.310Z,11.86
2024-01-22T11:36:17.529Z,11.82
2024-01-22T11:37:17.496Z,11.78
2024-01-22T11:38:17.611Z,11.70
2024-01-22T11:39:17.553Z,11.57
2024-01-22T11:40:17.429Z,11.49
2024-01-22T11:41:17.470Z,11.38
2024-01-22T11:42:17.647Z,11.29
2024-01-22T11:43:17.432Z,11.21
2024-01-22T11:44:17.547Z,11.14
2024-01-22T11:45:19.105Z,11.03
2024-01-22T11:46:17.722Z,10.99
2024-01-22T11:47:17.363Z,10.92
2024-01-22T11:48:17.815Z,10.89
2024-01-22T11:49:17.464Z,10.86
2024-01-22T11:50:17.388Z,10.83
2024-01-22T11:51:17.660Z,10.80
2024-01-22T11:52:17.555Z,10.78
2024-01-22T11:53:17.456Z,10.71
2024-01-22T11:54:17.685Z,10.73
2024-01-22T11:55:17.517Z,10.68
2024-01-22T11:56:17.445Z,10.65
2024-01-22T11:57:17.464Z,10.59
2024-01-22T11:58:17.313Z,10.55
2024-01-22T11:59:17.269Z,10.51
2024-01-22T12:00:17.302Z,10.46
2024-01-22T12:01:17.275Z,10.30
2024-01-22T12:02:17.343Z,10.07
2024-01-22T12:03:17.452Z,9.88
2024-01-22T12:04:18.381Z,9.68
2024-01-22T12:05:17.184Z,9.56
2024-01-22T12:06:17.329Z,9.46
2024-01-22T12:07:17.224Z,9.32
2024-01-22T12:08:17.277Z,9.23
2024-01-22T12:09:17.430Z,9.12
2024-01-22T12:10:17.259Z,9.04
2024-01-22T12:11:17.258Z,9.02
2024-01-22T12:12:17.258Z,9.04
2024-01-22T12:13:17.366Z,9.01
2024-01-22T12:14:17.298Z,8.97
2024-01-22T12:15:17.420Z,8.90
2024-01-22T12:16:17.421Z,8.88
2024-01-22T12:17:17.205Z,8.88
2024-01-22T12:18:17.217Z,8.91
2024-01-22T12:19:17.185Z,8.96
2024-01-22T12:20:39.196Z,9.02
2024-01-22T12:21:17.092Z,9.13
2024-01-22T12:22:17.045Z,9.28
2024-01-22T12:23:17.032Z,9.39
2024-01-22T12:24:17.148Z,9.39
2024-01-22T12:25:17.269Z,9.39
2024-01-22T12:26:17.101Z,9.31
2024-01-22T12:27:17.235Z,9.25
2024-01-22T12:28:18.058Z,9.21
2024-01-22T12:29:17.109Z,9.18
2024-01-22T12:30:17.033Z,9.10
2024-01-22T12:31:17.077Z,9.04
2024-01-22T12:32:17.244Z,9.01
2024-01-22T12:33:17.143Z,8.99
2024-01-22T12:34:17.013Z,8.97
2024-01-22T12:35:16.920Z,8.96
2024-01-22T12:36:17.019Z,8.91
2024-01-22T12:37:16.917Z,8.90
2024-01-22T12:38:17.043Z,8.87
2024-01-22T12:39:17.067Z,8.87
2024-01-22T12:40:16.853Z,8.81
2024-01-22T12:41:16.866Z,8.81
2024-01-22T12:42:17.000Z,8.79
2024-01-22T12:43:16.821Z,8.79
2024-01-22T12:44:17.069Z,8.78
2024-01-22T12:45:16.846Z,8.75
2024-01-22T12:46:16.835Z,8.75
2024-01-22T12:47:16.796Z,8.75
2024-01-22T12:48:17.025Z,8.72
2024-01-22T12:49:17.158Z,8.72
2024-01-22T12:50:16.804Z,8.73
2024-01-22T12:51:16.838Z,8.72
2024-01-22T12:52:16.849Z,8.68
2024-01-22T12:53:16.730Z,8.68
2024-01-22T12:54:16.776Z,8.66
2024-01-22T12:55:16.989Z,8.66
2024-01-22T12:56:16.940Z,8.63
2024-01-22T12:57:16.811Z,8.55
2024-01-22T12:58:16.694Z,8.51
2024-01-22T12:59:16.705Z,8.44
2024-01-22T13:00:17.034Z,8.42
2024-01-22T13:01:16.805Z,8.37
2024-01-22T13:02:16.669Z,8.36
2024-01-22T13:03:16.737Z,8.42
2024-01-22T13:04:16.707Z,8.44
2024-01-22T13:05:16.794Z,8.45
2024-01-22T13:06:16.865Z,8.47
2024-01-22T13:07:16.862Z,8.48
2024-01-22T13:08:16.618Z,8.47